Time;durP1;ratioP1;P1;durP2;ratioP2;P2;SDS_P1;SDS_P2;PMS_P1;PMS_P2;Temp;Humidity;BMP_temperature;BMP_pressure;BME280_temperature;BME280_humidity;BME280_pressure;Samples;Min_cycle;Max_cycle;Signal;HPM_P1;HPM_P2
2022/01/14 00:02:15;;;;;;;2.60;1.52;;;7.80;44.80;;;;;;5076258;28;20204;-50
2022/01/14 00:04:41;;;;;;;4.10;2.00;;;7.80;44.70;;;;;;5075006;28;20297;-50
2022/01/14 00:07:07;;;;;;;2.20;1.43;;;7.80;44.60;;;;;;5076268;28;20195;-50
2022/01/14 00:09:34;;;;;;;4.72;2.20;;;7.80;44.60;;;;;;5074905;28;20169;-50
2022/01/14 00:12:03;;;;;;;1.40;0.68;;;7.90;44.60;;;;;;5075701;28;20245;-50
2022/01/14 00:14:42;;;;;;;2.65;1.95;;;7.90;44.60;;;;;;5076003;28;20636;-50
2022/01/14 00:17:15;;;;;;;3.67;1.77;;;7.90;44.60;;;;;;5076261;28;20198;-50
2022/01/14 00:19:42;;;;;;;5.90;2.08;;;7.90;44.60;;;;;;5074509;28;20692;-50
2022/01/14 00:22:13;;;;;;;3.15;1.95;;;7.90;44.60;;;;;;5076009;28;20201;-50
2022/01/14 00:33:08;;;;;;;3.60;2.08;;;7.90;44.60;;;;;;5076207;28;20164;-50
2022/01/14 00:35:42;;;;;;;2.95;1.42;;;7.80;44.40;;;;;;5075812;28;20145;-50
2022/01/14 00:38:09;;;;;;;3.00;1.80;;;7.90;44.50;;;;;;5075932;28;20153;-50
2022/01/14 00:40:35;;;;;;;3.00;1.30;;;7.80;44.30;;;;;;5075695;28;20169;-50
2022/01/14 00:43:01;;;;;;;2.20;1.10;;;7.80;44.30;;;;;;5074255;28;20203;-50
2022/01/14 00:45:27;;;;;;;3.93;1.33;;;7.80;44.20;;;;;;5075863;28;20199;-50
2022/01/14 00:47:52;;;;;;;5.13;2.15;;;7.70;44.30;;;;;;5075507;28;20442;-50
2022/01/14 00:50:19;;;;;;;3.93;1.23;;;7.70;44.20;;;;;;5075598;28;20254;-50
2022/01/14 00:52:45;;;;;;;4.80;2.08;;;7.70;44.20;;;;;;5075431;28;20237;-50
2022/01/14 00:55:14;;;;;;;4.90;2.30;;;7.60;44.10;;;;;;5075634;28;20181;-50
2022/01/14 01:00:28;;;;;;;2.58;1.45;;;7.60;44.10;;;;;;5075315;28;20163;-50
2022/01/14 01:02:54;;;;;;;2.92;1.45;;;7.50;44.80;;;;;;5074532;28;20273;-50
2022/01/14 01:05:20;;;;;;;8.30;2.60;;;7.50;44.10;;;;;;5075132;28;20634;-50
2022/01/14 01:08:01;;;;;;;3.23;1.30;;;7.40;44.00;;;;;;5075247;28;20442;-50
2022/01/14 01:10:27;;;;;;;3.92;1.30;;;7.40;44.10;;;;;;5075163;28;20847;-50
2022/01/14 01:12:59;;;;;;;2.53;1.35;;;7.30;44.10;;;;;;5074973;28;20271;-50
2022/01/14 01:15:24;;;;;;;4.18;1.88;;;7.30;44.10;;;;;;5074940;28;20600;-50
2022/01/14 01:17:50;;;;;;;4.20;2.17;;;7.30;44.20;;;;;;5074991;28;20175;-50
2022/01/14 01:20:21;;;;;;;5.27;2.90;;;7.20;44.10;;;;;;5074728;28;20239;-50
2022/01/14 01:22:53;;;;;;;2.08;1.52;;;7.20;44.20;;;;;;5075034;28;20201;-50
2022/01/14 01:25:23;;;;;;;3.47;1.95;;;7.10;44.30;;;;;;5074876;28;20160;-50
2022/01/14 01:27:50;;;;;;;4.50;1.45;;;7.10;44.30;;;;;;5074703;28;20172;-50
2022/01/14 01:30:47;;;;;;;2.67;1.73;;;7.10;44.30;;;;;;5074760;28;20173;-50
2022/01/14 01:33:05;;;;;;;3.53;1.90;;;7.10;44.30;;;;;;5074418;28;20187;-50
2022/01/14 01:35:32;;;;;;;2.40;1.58;;;7.10;44.10;;;;;;5074509;28;20653;-50
2022/01/14 01:37:58;;;;;;;2.35;1.35;;;7.00;44.10;;;;;;5074628;28;20192;-50
2022/01/14 01:40:25;;;;;;;4.13;2.63;;;7.00;44.20;;;;;;5074422;28;20634;-50
2022/01/14 01:42:52;;;;;;;3.15;1.73;;;7.00;44.30;;;;;;5073028;28;20201;-50
2022/01/14 01:45:22;;;;;;;4.15;1.65;;;6.90;44.20;;;;;;5074628;28;20173;-50
2022/01/14 01:47:50;;;;;;;3.53;1.85;;;6.10;43.90;;;;;;5074644;28;20185;-50
2022/01/14 01:50:28;;;;;;;4.57;2.58;;;6.90;44.30;;;;;;5073081;28;20275;-50
2022/01/14 01:52:55;;;;;;;5.57;2.50;;;6.80;44.20;;;;;;5074389;28;20202;-50
2022/01/14 01:55:22;;;;;;;4.18;3.10;;;6.80;44.30;;;;;;5072887;28;20544;-50
2022/01/14 01:57:49;;;;;;;5.88;2.65;;;6.80;44.30;;;;;;5074316;28;20238;-50
2022/01/14 02:00:20;;;;;;;2.85;1.92;;;6.80;44.40;;;;;;5072810;28;20536;-50
2022/01/14 02:02:49;;;;;;;3.80;2.40;;;6.70;44.50;;;;;;5074210;28;20560;-50
2022/01/14 02:05:16;;;;;;;2.80;2.05;;;6.70;44.50;;;;;;5073907;28;20180;-50
2022/01/14 02:07:43;;;;;;;3.35;2.00;;;6.70;44.60;;;;;;5073869;28;20628;-50
2022/01/14 02:10:09;;;;;;;4.57;2.67;;;6.70;44.60;;;;;;5072746;28;20164;-50
2022/01/14 02:12:46;;;;;;;4.38;2.13;;;6.70;44.70;;;;;;5072551;28;20528;-50
2022/01/14 02:15:26;;;;;;;4.78;3.38;;;6.70;45.00;;;;;;5073017;28;20160;-50
2022/01/14 02:18:27;;;;;;;6.63;2.30;;;6.60;45.00;;;;;;5074132;28;20565;-50
2022/01/14 02:23:29;;;;;;;3.88;1.90;;;6.70;45.70;;;;;;5073631;28;20254;-50
2022/01/14 02:25:55;;;;;;;5.07;3.45;;;6.70;45.50;;;;;;5073679;28;20667;-50
2022/01/14 02:28:20;;;;;;;4.13;2.33;;;6.70;45.50;;;;;;5073721;28;20203;-50
2022/01/14 02:30:48;;;;;;;6.83;2.77;;;6.80;45.90;;;;;;5073705;28;20164;-50
2022/01/14 02:33:16;;;;;;;6.32;3.95;;;6.80;45.80;;;;;;5073648;28;20164;-50
2022/01/14 02:35:45;;;;;;;6.28;2.80;;;6.80;45.90;;;;;;5073546;28;20192;-50
2022/01/14 02:38:11;;;;;;;6.72;1.98;;;6.90;45.70;;;;;;5073547;28;20240;-50
2022/01/14 02:40:38;;;;;;;2.92;2.45;;;6.90;45.60;;;;;;5073759;28;20505;-50
2022/01/14 02:43:06;;;;;;;5.32;2.80;;;6.90;45.60;;;;;;5073495;28;20652;-50
2022/01/14 02:45:34;;;;;;;5.75;2.22;;;7.00;45.50;;;;;;5073519;28;20251;-50
2022/01/14 02:48:02;;;;;;;4.00;2.60;;;7.00;45.50;;;;;;5073439;28;20165;-50
2022/01/14 02:50:37;;;;;;;5.13;2.70;;;7.00;45.70;;;;;;5073495;28;20169;-50
2022/01/14 02:53:13;;;;;;;4.25;2.63;;;7.00;45.90;;;;;;5073700;28;20168;-50
2022/01/14 02:55:43;;;;;;;9.60;2.92;;;7.00;45.70;;;;;;5073430;28;20160;-50
2022/01/14 02:58:10;;;;;;;5.15;2.38;;;7.00;45.80;;;;;;5073405;28;20236;-50
2022/01/14 03:00:36;;;;;;;8.35;3.25;;;7.00;45.70;;;;;;5073352;28;20200;-50
2022/01/14 03:03:05;;;;;;;5.55;3.47;;;6.90;46.10;;;;;;5073261;28;20219;-50
2022/01/14 03:05:31;;;;;;;3.05;2.40;;;7.00;46.00;;;;;;5073548;28;20177;-50
2022/01/14 03:07:58;;;;;;;8.75;4.20;;;7.00;45.90;;;;;;5073558;28;20593;-50
2022/01/14 03:10:23;;;;;;;5.05;3.33;;;7.10;45.80;;;;;;5073244;28;20180;-50
2022/01/14 03:12:49;;;;;;;4.10;2.60;;;7.10;46.50;;;;;;5073328;28;20168;-50
2022/01/14 03:15:16;;;;;;;5.07;3.20;;;7.10;45.80;;;;;;5073220;28;20169;-50
2022/01/14 03:17:42;;;;;;;4.35;2.50;;;7.10;45.90;;;;;;5071869;28;20505;-50
2022/01/14 03:20:13;;;;;;;5.60;3.75;;;7.10;46.70;;;;;;5073029;28;20259;-50
2022/01/14 03:22:42;;;;;;;8.48;3.88;;;7.00;46.10;;;;;;5073196;28;20640;-50
2022/01/14 03:27:53;;;;;;;3.58;2.28;;;7.00;45.90;;;;;;5076472;28;20202;-50
2022/01/14 03:30:19;;;;;;;3.40;2.67;;;7.10;46.00;;;;;;5076934;28;20165;-50
2022/01/14 03:32:45;;;;;;;7.80;4.67;;;7.10;45.80;;;;;;5077002;28;20172;-50
2022/01/14 03:35:12;;;;;;;3.30;2.33;;;7.10;45.80;;;;;;5076834;28;20407;-50
2022/01/14 03:37:39;;;;;;;11.23;3.75;;;7.10;45.80;;;;;;5076738;28;20765;-50
2022/01/14 03:40:07;;;;;;;7.30;2.83;;;7.10;45.80;;;;;;5076787;28;20173;-50
2022/01/14 03:42:33;;;;;;;7.93;4.15;;;7.10;45.80;;;;;;5076552;28;20192;-50
2022/01/14 03:44:59;;;;;;;4.00;1.95;;;7.20;45.70;;;;;;5076757;28;20175;-50
2022/01/14 03:47:25;;;;;;;7.17;3.80;;;7.20;45.60;;;;;;5076605;28;20243;-50
2022/01/14 03:49:50;;;;;;;6.17;2.37;;;7.20;45.60;;;;;;5076608;28;20502;-50
2022/01/14 03:52:17;;;;;;;10.23;2.63;;;7.20;45.80;;;;;;5075285;28;20169;-50
2022/01/14 03:54:43;;;;;;;13.70;4.72;;;7.20;45.80;;;;;;5076724;28;20416;-50
2022/01/14 03:57:09;;;;;;;8.77;3.15;;;7.20;45.60;;;;;;5075141;28;20176;-50
2022/01/14 03:59:35;;;;;;;5.60;2.77;;;7.20;45.90;;;;;;5076357;28;20157;-50
2022/01/14 04:02:00;;;;;;;7.33;2.53;;;7.20;45.90;;;;;;5076266;28;20234;-50
2022/01/14 04:04:26;;;;;;;8.67;3.53;;;7.20;45.90;;;;;;5076344;28;20165;-50
2022/01/14 04:06:52;;;;;;;8.43;4.00;;;7.10;45.80;;;;;;5076316;28;20689;-50
2022/01/14 04:09:17;;;;;;;3.57;2.40;;;7.20;45.80;;;;;;5076600;28;20176;-50
2022/01/14 04:11:45;;;;;;;6.33;3.20;;;7.10;45.90;;;;;;5074869;28;20282;-50
2022/01/14 04:16:52;;;;;;;7.20;3.15;;;7.10;46.10;;;;;;5076564;28;20616;-50
2022/01/14 04:19:18;;;;;;;6.35;2.10;;;7.00;46.10;;;;;;5074550;28;20224;-50
2022/01/14 04:21:44;;;;;;;6.87;3.73;;;7.00;46.40;;;;;;5076025;28;20201;-50
2022/01/14 04:24:10;;;;;;;3.73;2.40;;;7.00;46.10;;;;;;5076068;28;20423;-50
2022/01/14 04:26:36;;;;;;;4.43;1.83;;;7.00;46.10;;;;;;5076178;28;20248;-50
2022/01/14 04:29:02;;;;;;;4.23;2.80;;;7.10;46.10;;;;;;5075949;28;20256;-50
2022/01/14 04:31:28;;;;;;;8.82;3.05;;;7.10;46.20;;;;;;5075794;28;20403;-50
2022/01/14 04:33:54;;;;;;;8.47;4.00;;;7.00;45.90;;;;;;5075865;28;20171;-50
2022/01/14 04:36:20;;;;;;;5.87;2.87;;;7.10;46.00;;;;;;5075689;28;20191;-50
2022/01/14 04:38:45;;;;;;;7.33;3.20;;;7.10;45.90;;;;;;5074704;28;20524;-50
2022/01/14 04:41:12;;;;;;;6.30;2.73;;;7.00;45.80;;;;;;5075560;28;20970;-50
2022/01/14 04:43:38;;;;;;;4.63;2.28;;;7.00;45.90;;;;;;5074305;28;20263;-50
2022/01/14 04:48:35;;;;;;;6.55;3.97;;;7.00;45.80;;;;;;5075497;28;20170;-50
2022/01/14 04:51:05;;;;;;;2.17;1.75;;;7.00;45.60;;;;;;5075426;28;20169;-50
2022/01/14 04:53:31;;;;;;;4.93;3.58;;;7.10;45.60;;;;;;5075364;28;20788;-50
2022/01/14 04:55:57;;;;;;;2.97;2.33;;;7.00;45.50;;;;;;5074100;28;20168;-50
2022/01/14 04:58:24;;;;;;;4.30;2.05;;;7.10;45.50;;;;;;5075283;28;20172;-50
2022/01/14 05:00:49;;;;;;;5.85;2.15;;;7.10;45.50;;;;;;5075322;28;20259;-50
2022/01/14 05:03:15;;;;;;;7.00;2.47;;;7.10;45.40;;;;;;5075385;28;20656;-50
2022/01/14 05:05:44;;;;;;;6.63;2.70;;;7.10;45.40;;;;;;5075024;28;20169;-51
2022/01/14 05:08:18;;;;;;;5.38;1.60;;;7.20;45.30;;;;;;5074935;28;20206;-50
2022/01/14 05:11:00;;;;;;;6.57;3.13;;;7.20;45.20;;;;;;5075223;28;20547;-50
2022/01/14 05:13:26;;;;;;;4.75;1.95;;;7.20;45.90;;;;;;5074920;28;20608;-50
2022/01/14 05:15:53;;;;;;;4.67;2.83;;;7.20;45.10;;;;;;5074966;28;20222;-50
2022/01/14 05:18:19;;;;;;;6.00;2.10;;;7.10;45.80;;;;;;5074830;28;20287;-50
2022/01/14 05:20:45;;;;;;;2.90;2.00;;;7.00;45.60;;;;;;5074663;28;20643;-50
2022/01/14 05:23:11;;;;;;;6.50;2.80;;;5.60;45.50;;;;;;5074789;28;20450;-50
2022/01/14 05:25:37;;;;;;;3.58;2.55;;;6.80;46.10;;;;;;5074908;28;20399;-50
2022/01/14 05:28:03;;;;;;;4.77;2.83;;;6.90;46.00;;;;;;5074681;28;20169;-50
2022/01/14 05:30:29;;;;;;;6.93;3.57;;;7.00;45.80;;;;;;5074536;28;20414;-50
2022/01/14 05:32:56;;;;;;;6.77;3.33;;;7.10;45.70;;;;;;5074608;28;20411;-50
2022/01/14 05:35:26;;;;;;;7.07;4.20;;;7.10;45.50;;;;;;5074499;28;20407;-50
2022/01/14 05:37:52;;;;;;;5.38;2.97;;;7.20;45.40;;;;;;5074756;28;20555;-50
2022/01/14 05:40:21;;;;;;;4.32;2.22;;;7.20;45.20;;;;;;5073149;28;20693;-50
2022/01/14 05:42:47;;;;;;;5.53;2.42;;;7.30;45.10;;;;;;5074349;28;20284;-50
2022/01/14 05:45:15;;;;;;;7.45;2.17;;;7.30;45.10;;;;;;5074241;28;20169;-50
2022/01/14 05:47:41;;;;;;;8.07;3.30;;;7.30;45.00;;;;;;5074499;28;20263;-50
2022/01/14 05:50:13;;;;;;;3.93;1.63;;;7.30;44.90;;;;;;5074041;28;20201;-50
2022/01/14 05:52:40;;;;;;;8.50;3.03;;;7.30;44.90;;;;;;5074294;28;20413;-50
2022/01/14 05:55:07;;;;;;;2.33;1.75;;;7.20;44.90;;;;;;5074203;28;20173;-50
2022/01/14 05:57:34;;;;;;;3.70;2.55;;;7.20;45.10;;;;;;5073990;28;20661;-50
2022/01/14 06:00:01;;;;;;;4.43;2.35;;;7.10;45.40;;;;;;5074162;28;20173;-50
2022/01/14 06:02:27;;;;;;;3.67;2.80;;;6.90;46.00;;;;;;5073887;28;20204;-50
2022/01/14 06:04:53;;;;;;;6.90;2.83;;;6.80;46.30;;;;;;5073949;28;20181;-50
2022/01/14 06:07:19;;;;;;;4.93;3.30;;;6.70;46.60;;;;;;5073892;28;20177;-50
2022/01/14 06:09:44;;;;;;;5.83;2.93;;;6.80;46.40;;;;;;5073980;28;20168;-50
2022/01/14 06:12:10;;;;;;;5.33;2.70;;;6.90;46.40;;;;;;5072535;28;20157;-50
2022/01/14 06:14:36;;;;;;;4.32;2.95;;;6.90;46.20;;;;;;5073824;28;20165;-50
2022/01/14 06:17:02;;;;;;;7.30;3.40;;;6.80;46.40;;;;;;5073548;28;20168;-50
2022/01/14 06:19:29;;;;;;;11.10;3.37;;;6.70;46.60;;;;;;5073597;28;20266;-50
2022/01/14 06:21:56;;;;;;;10.95;3.65;;;6.70;46.70;;;;;;5073733;28;20197;-50
2022/01/14 06:24:22;;;;;;;3.65;2.05;;;6.70;46.70;;;;;;5073911;28;20178;-50
2022/01/14 06:26:47;;;;;;;7.87;3.63;;;6.70;46.70;;;;;;5073716;28;20219;-50
2022/01/14 06:29:13;;;;;;;7.93;2.87;;;6.70;46.60;;;;;;5073669;28;20563;-50
2022/01/14 06:31:39;;;;;;;9.00;3.80;;;6.80;46.30;;;;;;5073632;28;20165;-50
2022/01/14 06:34:04;;;;;;;5.53;3.10;;;6.80;46.40;;;;;;5073632;28;20687;-50
2022/01/14 06:36:30;;;;;;;10.50;3.67;;;6.90;46.40;;;;;;5073490;28;20172;-50
2022/01/14 06:38:56;;;;;;;9.03;3.50;;;6.90;46.40;;;;;;5073457;28;20164;-50
2022/01/14 06:41:21;;;;;;;6.30;3.03;;;6.90;46.20;;;;;;5073356;28;20509;-50
2022/01/14 06:43:47;;;;;;;8.47;3.93;;;7.00;46.20;;;;;;5073386;28;20275;-50
2022/01/14 06:46:13;;;;;;;6.73;3.27;;;7.00;46.10;;;;;;5073431;28;20175;-50
2022/01/14 06:48:38;;;;;;;6.20;3.20;;;7.00;46.00;;;;;;5072156;28;20728;-51
2022/01/14 06:51:04;;;;;;;4.30;3.77;;;7.00;45.90;;;;;;5073279;28;20200;-50
2022/01/14 06:53:30;;;;;;;4.90;2.57;;;7.00;45.70;;;;;;5073345;28;20207;-50
2022/01/14 06:55:56;;;;;;;8.32;3.35;;;6.90;45.60;;;;;;5073416;28;20410;-50
2022/01/14 06:58:21;;;;;;;7.63;3.37;;;6.90;45.60;;;;;;5073260;28;20230;-50
2022/01/14 07:00:47;;;;;;;7.97;3.77;;;6.80;45.60;;;;;;5073266;28;20532;-50
2022/01/14 07:03:13;;;;;;;13.97;5.90;;;6.70;45.90;;;;;;5077267;28;20180;-50
2022/01/14 07:05:38;;;;;;;8.60;4.10;;;6.70;46.00;;;;;;5077653;28;20198;-50
2022/01/14 07:08:04;;;;;;;5.17;2.20;;;6.70;46.00;;;;;;5076295;28;20172;-50
2022/01/14 07:10:35;;;;;;;4.22;2.95;;;6.70;45.90;;;;;;5077389;28;20168;-50
2022/01/14 07:13:01;;;;;;;10.25;5.93;;;6.60;45.70;;;;;;5077308;28;20196;-50
2022/01/14 07:15:26;;;;;;;7.23;3.93;;;6.70;45.60;;;;;;5075927;28;20211;-50
2022/01/14 07:17:52;;;;;;;7.90;4.67;;;6.70;45.50;;;;;;5077162;28;20160;-50
2022/01/14 07:20:18;;;;;;;7.07;4.30;;;6.70;45.40;;;;;;5077094;28;20216;-50
2022/01/14 07:22:46;;;;;;;5.63;2.97;;;6.70;45.40;;;;;;5077023;28;20224;-50
2022/01/14 07:25:12;;;;;;;10.25;4.40;;;6.70;45.20;;;;;;5077295;28;20422;-50
2022/01/14 07:27:38;;;;;;;10.27;4.97;;;6.70;45.20;;;;;;5076979;28;20210;-50
2022/01/14 07:30:05;;;;;;;8.50;4.10;;;6.60;45.10;;;;;;5076923;28;20418;-50
2022/01/14 07:32:31;;;;;;;9.98;3.47;;;6.50;45.40;;;;;;5076998;28;20398;-50
2022/01/14 07:34:57;;;;;;;13.32;5.53;;;6.50;45.40;;;;;;5077047;28;20176;-50
2022/01/14 07:37:22;;;;;;;6.63;2.90;;;6.50;45.40;;;;;;5076890;28;20169;-50
2022/01/14 07:39:48;;;;;;;6.37;3.00;;;6.60;45.40;;;;;;5076714;28;20418;-50
2022/01/14 07:42:14;;;;;;;5.00;3.93;;;6.50;45.50;;;;;;5076858;28;20243;-50
2022/01/14 07:44:40;;;;;;;3.80;2.50;;;6.50;45.50;;;;;;5076788;28;20415;-50
2022/01/14 07:47:06;;;;;;;8.63;4.63;;;6.50;45.50;;;;;;5075264;28;20439;-50
2022/01/14 07:49:32;;;;;;;5.90;3.22;;;6.60;45.40;;;;;;5076557;28;20173;-50
2022/01/14 07:51:58;;;;;;;6.90;2.50;;;6.70;45.40;;;;;;5076468;28;20176;-50
2022/01/14 07:54:25;;;;;;;3.40;2.10;;;6.70;45.20;;;;;;5076480;28;20458;-50
2022/01/14 07:56:53;;;;;;;6.95;3.50;;;6.80;45.10;;;;;;5076369;28;20411;-50
2022/01/14 07:59:22;;;;;;;5.10;2.80;;;6.90;45.10;;;;;;5076504;28;20188;-50
2022/01/14 08:01:51;;;;;;;6.35;3.25;;;7.00;44.90;;;;;;5076144;28;20275;-50
2022/01/14 08:04:18;;;;;;;6.50;3.95;;;7.00;44.70;;;;;;5076389;28;20271;-50
2022/01/14 08:06:47;;;;;;;11.48;2.40;;;7.10;44.70;;;;;;5076296;28;20169;-50
2022/01/14 08:09:14;;;;;;;4.18;2.63;;;7.10;44.70;;;;;;5076371;28;20278;-50
2022/01/14 08:11:40;;;;;;;5.15;1.40;;;7.20;44.60;;;;;;5076186;28;20226;-50
2022/01/14 08:14:06;;;;;;;5.22;4.03;;;7.30;44.40;;;;;;5076299;28;20176;-50
2022/01/14 08:16:32;;;;;;;4.90;2.43;;;7.50;44.10;;;;;;5076119;28;20174;-50
2022/01/14 08:18:57;;;;;;;4.63;2.40;;;7.60;44.30;;;;;;5074489;28;20254;-51
2022/01/14 08:21:23;;;;;;;3.73;2.90;;;7.90;44.30;;;;;;5076051;28;20166;-50
2022/01/14 08:23:49;;;;;;;6.70;2.57;;;8.20;43.80;;;;;;5075945;28;20177;-50
2022/01/14 08:26:15;;;;;;;7.77;2.53;;;8.60;42.60;;;;;;5075976;28;20726;-50
2022/01/14 08:28:41;;;;;;;3.60;1.65;;;9.00;42.20;;;;;;5075805;28;20632;-50
2022/01/14 08:31:07;;;;;;;7.40;2.70;;;9.20;41.90;;;;;;5076020;28;20181;-50
2022/01/14 08:33:32;;;;;;;4.80;3.43;;;9.40;41.30;;;;;;5075778;28;20442;-50
2022/01/14 08:35:58;;;;;;;6.80;2.60;;;9.40;40.80;;;;;;5075728;28;20178;-50
2022/01/14 08:38:24;;;;;;;5.00;2.53;;;9.40;40.40;;;;;;5075587;28;20459;-50
2022/01/14 08:40:50;;;;;;;2.60;1.70;;;9.40;41.00;;;;;;5074318;28;20179;-50
2022/01/14 08:43:16;;;;;;;5.05;2.38;;;9.40;40.70;;;;;;5075483;28;20724;-50
2022/01/14 08:45:42;;;;;;;2.87;2.43;;;9.40;40.80;;;;;;5075619;28;20254;-50
2022/01/14 08:48:08;;;;;;;4.53;1.77;;;9.30;40.50;;;;;;5075501;28;20169;-50
2022/01/14 08:50:38;;;;;;;2.80;1.67;;;9.20;40.40;;;;;;5075338;28;20517;-50
2022/01/14 08:53:07;;;;;;;6.82;2.95;;;8.90;40.20;;;;;;5075552;28;20412;-50
2022/01/14 08:55:35;;;;;;;4.55;2.30;;;8.70;40.70;;;;;;5075348;28;20233;-50
2022/01/14 08:58:01;;;;;;;3.65;1.00;;;8.40;40.90;;;;;;5075278;28;20172;-50
2022/01/14 09:00:27;;;;;;;2.20;1.13;;;8.30;41.70;;;;;;5075545;28;20604;-50
2022/01/14 09:02:54;;;;;;;3.37;1.40;;;8.20;41.90;;;;;;5075174;28;20282;-50
2022/01/14 09:05:21;;;;;;;2.72;2.47;;;8.00;42.30;;;;;;5075158;28;20181;-50
2022/01/14 09:07:48;;;;;;;5.43;2.88;;;7.90;42.90;;;;;;5075180;28;20686;-50
2022/01/14 09:10:14;;;;;;;7.45;2.13;;;7.90;43.00;;;;;;5075110;28;20248;-50
2022/01/14 09:12:42;;;;;;;4.03;2.23;;;7.90;43.10;;;;;;5074975;28;20572;-50
2022/01/14 09:15:09;;;;;;;3.80;1.80;;;7.80;43.30;;;;;;5074888;28;20187;-50
2022/01/14 09:17:36;;;;;;;5.32;2.38;;;7.70;43.50;;;;;;5074892;28;20218;-50
2022/01/14 09:20:04;;;;;;;7.20;2.47;;;7.60;43.70;;;;;;5073384;28;20753;-50
2022/01/14 09:22:32;;;;;;;3.97;1.52;;;7.70;43.90;;;;;;5074758;28;20246;-50
2022/01/14 09:24:59;;;;;;;7.07;2.55;;;7.60;43.80;;;;;;5074300;28;20177;-50
2022/01/14 09:27:27;;;;;;;4.63;2.78;;;7.50;44.20;;;;;;5074613;28;20227;-50
2022/01/14 09:29:54;;;;;;;9.15;3.15;;;7.50;44.40;;;;;;5074668;28;20161;-50
2022/01/14 09:32:20;;;;;;;6.43;2.65;;;7.40;44.60;;;;;;5074866;28;20186;-50
2022/01/14 09:34:46;;;;;;;6.47;2.35;;;7.40;44.70;;;;;;5074627;28;20208;-50
2022/01/14 09:37:12;;;;;;;4.75;3.13;;;7.30;44.90;;;;;;5074497;28;20181;-50
2022/01/14 09:39:43;;;;;;;5.10;2.60;;;7.40;44.80;;;;;;5074409;28;20217;-50
2022/01/14 09:42:10;;;;;;;3.15;2.08;;;7.50;44.80;;;;;;5073175;28;20208;-50
2022/01/14 09:44:35;;;;;;;10.65;3.28;;;7.50;44.60;;;;;;5074372;28;20203;-50
2022/01/14 09:47:02;;;;;;;8.63;3.07;;;7.50;44.50;;;;;;5074348;28;20532;-50
2022/01/14 09:49:28;;;;;;;9.40;2.97;;;7.50;44.60;;;;;;5074591;28;20176;-50
2022/01/14 09:51:54;;;;;;;7.97;3.30;;;7.40;44.70;;;;;;5073009;28;20195;-50
2022/01/14 09:54:20;;;;;;;6.33;3.30;;;7.40;44.80;;;;;;5074150;28;20638;-50
2022/01/14 09:56:46;;;;;;;5.53;3.40;;;7.30;45.20;;;;;;5074439;28;20418;-50
2022/01/14 09:59:12;;;;;;;6.23;4.27;;;7.30;45.20;;;;;;5074268;28;20177;-50
2022/01/14 10:01:46;;;;;;;4.63;2.85;;;7.60;46.00;;;;;;5073951;28;20478;-50
2022/01/14 10:04:20;;;;;;;5.93;3.22;;;7.20;45.30;;;;;;5074031;28;20175;-50
2022/01/14 10:06:52;;;;;;;11.63;2.83;;;7.00;45.70;;;;;;5074068;28;20164;-50
2022/01/14 10:09:38;;;;;;;6.15;4.15;;;6.90;46.10;;;;;;5073968;28;20183;-50
2022/01/14 10:12:06;;;;;;;9.15;4.38;;;6.80;46.50;;;;;;5074140;28;20243;-50
2022/01/14 10:14:34;;;;;;;3.70;2.35;;;6.60;47.00;;;;;;5074090;28;20177;-50
2022/01/14 10:17:02;;;;;;;12.20;3.53;;;6.40;47.80;;;;;;5073779;28;20165;-50
2022/01/14 10:19:37;;;;;;;3.65;3.33;;;6.40;47.80;;;;;;5072366;28;20218;-50
2022/01/14 10:22:21;;;;;;;5.82;2.95;;;6.50;47.70;;;;;;5073613;28;20196;-50
2022/01/14 10:25:20;;;;;;;9.38;4.63;;;6.50;47.90;;;;;;5073780;28;20201;-50
2022/01/14 10:27:48;;;;;;;8.65;3.90;;;6.40;47.80;;;;;;5069449;28;20636;-50
2022/01/14 10:30:19;;;;;;;3.85;2.88;;;6.40;48.00;;;;;;5073594;28;20174;-50
2022/01/14 10:32:58;;;;;;;4.38;3.50;;;6.30;48.10;;;;;;5072380;28;20259;-50
2022/01/14 10:35:26;;;;;;;8.93;3.88;;;6.40;48.00;;;;;;5073264;28;20192;-50
2022/01/14 10:37:56;;;;;;;7.25;3.15;;;6.50;47.70;;;;;;5073208;28;20162;-50
2022/01/14 10:40:24;;;;;;;14.63;3.80;;;6.50;47.70;;;;;;5072196;28;20164;-50
2022/01/14 10:42:58;;;;;;;5.05;3.45;;;6.60;47.70;;;;;;5073694;28;20287;-50
2022/01/14 10:45:27;;;;;;;8.02;3.78;;;6.70;47.30;;;;;;5073550;28;20164;-50
2022/01/14 10:48:08;;;;;;;9.73;3.70;;;7.40;47.40;;;;;;5073907;28;20663;-50
2022/01/14 10:50:56;;;;;;;7.75;3.65;;;6.80;46.90;;;;;;5073360;28;20612;-50
2022/01/14 10:53:27;;;;;;;4.88;2.65;;;6.80;46.90;;;;;;5073421;28;20158;-50
2022/01/14 10:56:03;;;;;;;29.42;5.30;;;6.80;46.90;;;;;;5073850;28;20533;-50
2022/01/14 10:58:50;;;;;;;6.70;3.05;;;6.90;46.90;;;;;;5073386;28;20163;-50
2022/01/14 11:01:22;;;;;;;4.90;2.58;;;6.90;47.00;;;;;;5072078;28;20171;-50
2022/01/14 11:03:53;;;;;;;8.60;4.57;;;6.70;47.40;;;;;;5073270;28;20226;-50
2022/01/14 11:06:24;;;;;;;13.85;3.75;;;6.70;47.60;;;;;;5073321;28;20570;-50
2022/01/14 11:09:03;;;;;;;4.13;2.72;;;6.80;47.70;;;;;;5073197;28;20160;-50
2022/01/14 11:11:38;;;;;;;9.98;5.00;;;6.80;47.60;;;;;;5073192;28;20168;-50
2022/01/14 11:14:04;;;;;;;9.80;4.30;;;6.80;47.50;;;;;;5073112;28;20161;-50
2022/01/14 11:16:30;;;;;;;10.48;4.22;;;6.90;47.40;;;;;;5073090;28;20171;-50
2022/01/14 11:18:59;;;;;;;9.10;2.95;;;7.00;47.30;;;;;;5072926;28;20178;-50
2022/01/14 11:24:13;;;;;;;9.68;5.30;;;7.10;47.20;;;;;;5073463;28;20664;-52
2022/01/14 11:26:41;;;;;;;5.97;3.17;;;7.20;46.90;;;;;;5073114;28;20161;-50
2022/01/14 11:29:16;;;;;;;6.15;3.17;;;7.10;47.20;;;;;;5071773;28;20173;-50
2022/01/14 11:31:42;;;;;;;8.73;3.45;;;7.00;47.50;;;;;;5072915;28;20708;-50
2022/01/14 11:34:10;;;;;;;5.53;3.22;;;7.20;47.30;;;;;;5072910;28;20169;-50
2022/01/14 11:36:48;;;;;;;14.77;4.95;;;7.20;47.20;;;;;;5072754;28;20184;-50
2022/01/14 11:39:22;;;;;;;8.05;3.55;;;7.30;47.20;;;;;;5072589;28;20180;-50
2022/01/14 11:41:59;;;;;;;8.38;3.42;;;7.20;47.30;;;;;;5071462;28;20211;-50
2022/01/14 11:45:03;;;;;;;16.75;5.50;;;7.10;48.60;;;;;;5072926;28;20608;-50
2022/01/14 11:47:40;;;;;;;6.68;3.50;;;7.00;48.20;;;;;;5074106;28;20161;-52
2022/01/14 11:50:19;;;;;;;10.48;5.13;;;7.10;48.00;;;;;;5076780;28;20181;-50
2022/01/14 11:52:47;;;;;;;7.80;3.13;;;7.30;47.50;;;;;;5076545;28;20210;-50
2022/01/14 11:55:21;;;;;;;7.35;3.47;;;7.30;47.40;;;;;;5076541;28;20635;-50
2022/01/14 11:57:50;;;;;;;3.05;2.13;;;7.40;47.30;;;;;;5076493;28;20161;-50
2022/01/14 12:00:30;;;;;;;6.20;3.65;;;7.40;47.60;;;;;;5076503;28;20666;-50
2022/01/14 12:03:00;;;;;;;6.10;2.28;;;7.30;48.20;;;;;;5076423;28;20288;-50
2022/01/14 12:05:30;;;;;;;10.80;3.85;;;7.30;47.90;;;;;;5076205;28;20168;-50
2022/01/14 12:08:05;;;;;;;8.82;4.15;;;7.20;48.20;;;;;;5076280;28;20161;-50
2022/01/14 12:10:39;;;;;;;10.98;4.00;;;7.30;48.30;;;;;;5076420;28;20215;-50
2022/01/14 12:13:25;;;;;;;5.72;3.90;;;7.30;48.60;;;;;;5076520;28;20569;-49
2022/01/14 12:16:03;;;;;;;8.30;3.65;;;7.30;48.80;;;;;;5076237;28;20207;-50
2022/01/14 12:18:56;;;;;;;5.85;2.22;;;7.30;48.70;;;;;;5076213;28;20192;-50
2022/01/14 12:21:44;;;;;;;7.60;4.13;;;7.30;48.80;;;;;;5076039;28;20165;-50
2022/01/14 12:24:19;;;;;;;6.78;2.72;;;7.20;49.70;;;;;;5075776;28;20180;-50
2022/01/14 12:29:38;;;;;;;7.05;4.10;;;7.30;49.50;;;;;;5075882;28;20188;-50
2022/01/14 12:32:12;;;;;;;5.07;3.83;;;7.30;49.30;;;;;;5075769;28;20160;-50
2022/01/14 12:34:45;;;;;;;5.28;3.30;;;7.30;49.50;;;;;;5076014;28;20244;-50
2022/01/14 12:37:21;;;;;;;5.50;2.95;;;7.30;49.50;;;;;;5075762;28;20157;-50
2022/01/14 12:39:50;;;;;;;9.77;4.53;;;7.40;49.40;;;;;;5074598;28;20221;-52
2022/01/14 12:42:18;;;;;;;6.95;3.65;;;7.50;49.10;;;;;;5075513;28;20272;-52
2022/01/14 12:44:45;;;;;;;5.53;2.97;;;7.60;48.80;;;;;;5075696;28;20208;-50
2022/01/14 12:47:19;;;;;;;9.95;4.22;;;7.70;48.80;;;;;;5075459;28;20180;-50
2022/01/14 12:49:45;;;;;;;8.88;3.00;;;7.50;49.20;;;;;;5075828;28;20172;-50
2022/01/14 12:52:16;;;;;;;5.37;2.83;;;7.40;49.50;;;;;;5075444;28;20165;-50
2022/01/14 12:54:46;;;;;;;4.43;3.65;;;7.40;49.90;;;;;;5075614;28;20389;-50
2022/01/14 12:57:17;;;;;;;8.55;3.58;;;7.40;50.00;;;;;;5075273;28;20191;-50
2022/01/14 12:59:46;;;;;;;9.48;3.45;;;7.30;50.50;;;;;;5074481;28;20199;-50
2022/01/14 13:02:30;;;;;;;8.18;4.90;;;7.20;50.80;;;;;;5075170;28;20200;-50
2022/01/14 13:05:16;;;;;;;6.07;4.40;;;7.30;50.60;;;;;;5075468;28;20164;-50
2022/01/14 13:07:43;;;;;;;9.25;4.20;;;7.40;50.10;;;;;;5075364;28;20157;-50
2022/01/14 13:10:12;;;;;;;6.78;4.03;;;7.60;49.70;;;;;;5075075;28;20563;-50
2022/01/14 13:12:41;;;;;;;14.75;5.63;;;7.60;49.70;;;;;;5075132;28;20252;-50
2022/01/14 13:15:14;;;;;;;4.82;3.60;;;7.50;50.00;;;;;;5075223;28;20172;-50
2022/01/14 13:17:53;;;;;;;5.82;4.60;;;7.50;49.90;;;;;;5075126;28;20260;-50
2022/01/14 13:20:21;;;;;;;8.07;4.00;;;7.60;49.50;;;;;;5074693;28;20236;-50
2022/01/14 13:22:48;;;;;;;7.97;3.45;;;7.70;49.40;;;;;;5074804;28;20196;-50
2022/01/14 13:25:16;;;;;;;7.72;3.38;;;7.70;49.10;;;;;;5074730;28;20691;-50
2022/01/14 13:27:46;;;;;;;8.10;3.85;;;7.70;49.30;;;;;;5075158;28;20515;-50
2022/01/14 13:30:11;;;;;;;14.48;3.17;;;7.70;49.30;;;;;;5074655;28;20165;-50
2022/01/14 13:32:38;;;;;;;13.23;5.17;;;7.70;50.10;;;;;;5074725;28;20168;-50